Time;durP1;ratioP1;P1;durP2;ratioP2;P2;SDS_P1;SDS_P2;PMS_P1;PMS_P2;Temp;Humidity;BMP_temperature;BMP_pressure;BME280_temperature;BME280_humidity;BME280_pressure;Samples;Min_cycle;Max_cycle;Signal;HPM_P1;HPM_P2
2023/04/16 00:00:14;;;;;;;8.47;3.53;;;;;;;12.08;70.20;94652.47;5010483;28;20703;-73
2023/04/16 00:02:40;;;;;;;9.23;3.60;;;;;;;11.91;71.63;94657.44;5003542;28;20291;-72
2023/04/16 00:05:05;;;;;;;8.00;3.47;;;;;;;11.82;72.13;94650.06;5004046;28;20238;-72
2023/04/16 00:07:31;;;;;;;9.47;3.40;;;;;;;11.68;72.12;94651.19;5020272;28;20242;-73
2023/04/16 00:09:56;;;;;;;6.47;3.30;;;;;;;11.62;72.89;94650.16;5003914;28;20226;-72
2023/04/16 00:12:22;;;;;;;8.47;3.37;;;;;;;11.73;72.20;94649.50;5021576;28;20818;-72
2023/04/16 00:14:48;;;;;;;6.80;3.30;;;;;;;11.69;72.86;94644.91;4998775;28;20234;-73
2023/04/16 00:17:13;;;;;;;8.23;3.50;;;;;;;11.59;73.09;94652.41;5001741;28;20237;-72
2023/04/16 00:19:39;;;;;;;8.70;3.70;;;;;;;11.56;72.43;94644.97;4995075;28;20237;-72
2023/04/16 00:22:04;;;;;;;9.20;3.40;;;;;;;11.55;72.52;94638.94;4995435;28;20269;-72
2023/04/16 00:24:30;;;;;;;6.73;3.33;;;;;;;11.61;72.01;94647.78;5011344;28;20996;-72
2023/04/16 00:26:55;;;;;;;7.97;3.60;;;;;;;11.56;72.21;94648.38;4997827;28;20234;-72
2023/04/16 00:29:21;;;;;;;7.87;3.10;;;;;;;11.62;71.78;94647.53;5002960;28;20234;-72
2023/04/16 00:31:47;;;;;;;6.13;3.60;;;;;;;11.51;72.81;94643.78;4992944;28;20239;-72
2023/04/16 00:34:12;;;;;;;7.77;3.47;;;;;;;11.53;72.25;94648.81;5020853;28;20223;-71
2023/04/16 00:36:38;;;;;;;9.17;3.60;;;;;;;11.48;73.27;94643.41;4997281;28;20241;-72
2023/04/16 00:39:03;;;;;;;6.53;3.90;;;;;;;11.26;73.30;94644.75;5004117;28;20284;-72
2023/04/16 00:41:29;;;;;;;10.40;4.37;;;;;;;11.24;74.38;94641.53;4995083;28;20258;-72
2023/04/16 00:43:54;;;;;;;9.33;4.50;;;;;;;11.28;74.01;94642.72;4997665;28;20230;-72
2023/04/16 00:46:20;;;;;;;10.80;4.63;;;;;;;11.32;73.30;94639.47;5004138;28;21159;-72
2023/04/16 00:48:46;;;;;;;9.70;4.80;;;;;;;11.19;74.79;94650.03;5002726;28;20296;-72
2023/04/16 00:51:11;;;;;;;12.93;6.57;;;;;;;11.26;74.22;94642.13;4994490;28;20665;-73
2023/04/16 00:53:37;;;;;;;15.37;7.40;;;;;;;11.30;74.14;94640.69;5002762;28;20906;-72
2023/04/16 00:56:04;;;;;;;15.90;7.47;;;;;;;11.20;75.14;94641.13;5001240;28;20288;-72
2023/04/16 00:58:32;;;;;;;14.70;7.50;;;;;;;11.15;74.53;94645.41;4999365;28;20341;-73
2023/04/16 01:00:58;;;;;;;18.77;7.23;;;;;;;11.20;73.98;94637.75;5022274;28;20237;-73
2023/04/16 01:03:26;;;;;;;15.20;6.90;;;;;;;11.14;73.76;94647.22;4995950;28;20227;-73
2023/04/16 01:05:51;;;;;;;15.40;6.87;;;;;;;11.13;73.05;94642.22;5004607;28;20218;-72
2023/04/16 01:08:17;;;;;;;13.97;6.80;;;;;;;11.14;73.10;94644.63;5009878;28;20630;-72
2023/04/16 01:10:44;;;;;;;13.67;6.60;;;;;;;11.17;72.45;94641.59;4994795;28;20226;-73
2023/04/16 01:13:09;;;;;;;14.67;6.73;;;;;;;11.06;72.98;94642.22;4987899;28;20235;-72
2023/04/16 01:15:35;;;;;;;18.60;7.00;;;;;;;10.89;73.13;94637.69;4985995;28;20221;-73
2023/04/16 01:18:01;;;;;;;14.77;6.70;;;;;;;10.73;71.17;94639.75;4995738;28;20273;-72
2023/04/16 01:20:26;;;;;;;13.23;6.17;;;;;;;10.67;70.90;94634.56;4997939;28;20243;-72
2023/04/16 01:22:52;;;;;;;13.17;6.00;;;;;;;10.63;71.69;94635.94;5008337;28;20237;-71
2023/04/16 01:25:17;;;;;;;13.20;5.80;;;;;;;10.58;70.59;94641.03;5019619;28;20233;-72
2023/04/16 01:27:43;;;;;;;10.70;5.27;;;;;;;10.78;66.87;94639.13;4999981;28;21035;-71
2023/04/16 01:30:08;;;;;;;15.73;5.20;;;;;;;10.72;65.90;94638.13;4992597;28;20246;-72
2023/04/16 01:32:34;;;;;;;12.60;5.30;;;;;;;10.62;64.89;94632.56;4994542;28;20325;-72
2023/04/16 01:34:59;;;;;;;13.70;5.20;;;;;;;10.63;65.63;94631.53;5001772;28;20281;-71
2023/04/16 01:37:25;;;;;;;13.03;5.20;;;;;;;10.45;67.92;94636.63;5003209;28;20249;-72
2023/04/16 01:39:50;;;;;;;10.70;5.17;;;;;;;10.43;67.32;94630.00;5010865;28;20309;-72
2023/04/16 01:42:16;;;;;;;12.67;5.30;;;;;;;10.42;67.03;94626.56;5022081;28;20304;-72
2023/04/16 01:44:41;;;;;;;12.33;5.00;;;;;;;10.67;66.90;94624.91;5019286;28;20224;-72
2023/04/16 01:47:07;;;;;;;16.77;5.30;;;;;;;10.61;67.01;94627.50;4995990;28;20238;-72
2023/04/16 01:49:32;;;;;;;10.73;4.83;;;;;;;10.37;67.72;94622.94;5003339;28;20326;-71
2023/04/16 01:51:58;;;;;;;12.17;5.30;;;;;;;10.09;68.07;94621.38;5001576;28;20230;-73
2023/04/16 01:54:24;;;;;;;14.40;5.43;;;;;;;10.10;68.07;94630.03;4996626;28;20235;-72
2023/04/16 01:56:50;;;;;;;13.13;5.00;;;;;;;10.07;67.14;94622.59;5014959;28;20242;-73
2023/04/16 01:59:15;;;;;;;11.57;4.63;;;;;;;10.20;67.65;94627.03;5001380;28;20238;-73
2023/04/16 02:01:41;;;;;;;11.63;5.13;;;;;;;10.27;67.71;94620.75;4984787;28;20230;-72
2023/04/16 02:04:07;;;;;;;14.10;5.27;;;;;;;10.34;67.15;94621.53;5005060;28;20592;-72
2023/04/16 02:06:32;;;;;;;14.87;5.37;;;;;;;10.29;67.57;94625.81;5014950;28;20234;-72
2023/04/16 02:08:58;;;;;;;13.07;6.00;;;;;;;10.31;69.50;94623.78;4998897;28;20615;-72
2023/04/16 02:11:23;;;;;;;10.33;5.50;;;;;;;10.40;68.94;94618.13;5013820;28;20230;-72
2023/04/16 02:13:48;;;;;;;12.13;5.57;;;;;;;10.44;67.62;94619.31;4984045;28;20714;-73
2023/04/16 02:16:14;;;;;;;14.10;5.57;;;;;;;10.64;66.48;94617.44;5001732;28;20230;-73
2023/04/16 02:18:39;;;;;;;13.73;5.70;;;;;;;10.67;65.79;94618.84;4997308;28;20717;-72
2023/04/16 02:21:06;;;;;;;12.07;5.80;;;;;;;10.67;64.56;94614.44;5003564;28;20584;-72
2023/04/16 02:23:32;;;;;;;14.97;5.63;;;;;;;10.61;64.64;94612.63;4990086;28;20237;-73
2023/04/16 02:25:57;;;;;;;13.07;5.33;;;;;;;10.59;66.98;94612.03;4997321;28;20226;-72
2023/04/16 02:28:23;;;;;;;14.30;5.43;;;;;;;10.57;67.35;94619.28;4999636;28;20230;-72
2023/04/16 02:30:48;;;;;;;13.43;5.50;;;;;;;10.42;67.56;94613.50;5016272;28;20233;-72
2023/04/16 02:33:14;;;;;;;16.77;5.70;;;;;;;10.46;67.30;94614.69;4989180;28;20281;-73
2023/04/16 02:35:39;;;;;;;13.27;5.60;;;;;;;10.42;67.42;94613.50;5012530;28;20231;-73
2023/04/16 02:38:05;;;;;;;12.60;5.73;;;;;;;10.53;67.91;94612.84;5008821;28;20245;-72
2023/04/16 02:40:30;;;;;;;14.93;5.70;;;;;;;10.50;68.42;94604.63;5016929;28;20288;-73
2023/04/16 02:42:56;;;;;;;13.60;5.90;;;;;;;10.55;68.53;94610.03;5009340;28;20272;-73
2023/04/16 02:45:22;;;;;;;13.93;5.60;;;;;;;10.55;67.73;94607.41;4994914;28;20261;-71
2023/04/16 02:47:48;;;;;;;15.80;6.13;;;;;;;10.50;67.63;94612.47;4993876;28;20226;-72
2023/04/16 02:50:13;;;;;;;12.23;5.60;;;;;;;10.46;67.13;94600.81;5013947;28;20215;-72
2023/04/16 02:52:39;;;;;;;11.40;5.23;;;;;;;10.50;66.75;94602.81;5003328;28;20268;-72
2023/04/16 02:55:05;;;;;;;12.40;5.53;;;;;;;10.39;67.67;94600.81;5013287;28;20238;-72
2023/04/16 02:57:31;;;;;;;14.93;5.43;;;;;;;10.38;68.45;94599.22;5028846;28;20624;-72
2023/04/16 02:59:56;;;;;;;11.43;5.13;;;;;;;10.42;68.32;94602.22;5009479;28;20229;-72
2023/04/16 03:02:21;;;;;;;15.03;5.23;;;;;;;10.26;68.74;94600.06;5000091;28;20234;-72
2023/04/16 03:04:47;;;;;;;11.07;5.27;;;;;;;10.12;69.19;94601.91;5024697;28;20237;-73
2023/04/16 03:07:12;;;;;;;11.90;5.30;;;;;;;10.22;69.88;94594.44;4999248;28;20229;-73
2023/04/16 03:09:38;;;;;;;11.90;5.47;;;;;;;10.31;68.45;94590.59;5022839;28;20227;-72
2023/04/16 03:12:04;;;;;;;13.07;5.40;;;;;;;10.23;69.23;94597.84;4985532;28;20241;-73
2023/04/16 03:14:30;;;;;;;10.73;5.33;;;;;;;10.24;69.13;94600.28;5001230;28;20237;-73
2023/04/16 03:16:56;;;;;;;12.35;5.40;;;;;;;10.23;69.34;94610.91;5001541;28;20237;-72
2023/04/16 03:19:21;;;;;;;13.23;5.17;;;;;;;10.30;70.11;94604.66;5008164;28;20465;-72
2023/04/16 03:21:47;;;;;;;10.43;4.83;;;;;;;10.14;70.18;94602.50;5008201;28;20272;-72
2023/04/16 03:24:12;;;;;;;8.73;4.73;;;;;;;10.16;70.14;94610.94;4990387;28;20635;-72
2023/04/16 03:26:38;;;;;;;9.00;4.60;;;;;;;10.14;70.01;94605.13;5012450;28;20234;-72
2023/04/16 03:29:03;;;;;;;10.13;4.80;;;;;;;10.35;69.68;94609.28;5014376;28;20294;-72
2023/04/16 03:31:29;;;;;;;10.00;5.10;;;;;;;10.28;70.63;94611.09;5000494;28;20362;-73
2023/04/16 03:33:54;;;;;;;11.77;5.17;;;;;;;10.32;71.31;94607.88;5013944;28;20245;-73
2023/04/16 03:36:21;;;;;;;10.40;5.37;;;;;;;10.22;71.63;94612.75;5013699;28;20233;-73
2023/04/16 03:38:47;;;;;;;12.90;5.97;;;;;;;10.40;70.74;94607.66;5008535;28;20248;-73
2023/04/16 03:41:12;;;;;;;12.93;6.17;;;;;;;10.35;71.20;94617.13;5023425;28;20237;-72
2023/04/16 03:43:38;;;;;;;17.70;7.30;;;;;;;10.34;70.33;94615.53;5004612;28;20288;-73
2023/04/16 03:46:03;;;;;;;15.67;7.60;;;;;;;10.23;71.45;94619.56;5000275;28;20949;-73
2023/04/16 03:48:29;;;;;;;16.47;7.97;;;;;;;10.27;70.61;94620.75;4998954;28;20344;-73
2023/04/16 03:50:55;;;;;;;18.57;7.97;;;;;;;10.20;69.99;94622.59;5009696;28;20226;-71
2023/04/16 03:53:20;;;;;;;19.00;7.80;;;;;;;10.11;68.29;94624.63;5013766;28;20241;-72
2023/04/16 03:55:51;;;;;;;17.83;7.30;;;;;;;10.01;67.58;94618.16;4990912;28;20693;-72
2023/04/16 03:58:16;;;;;;;19.50;7.30;;;;;;;9.84;70.10;94615.16;5010385;28;20226;-72
2023/04/16 04:00:42;;;;;;;19.60;7.20;;;;;;;9.92;69.71;94620.19;5002125;28;20337;-72
2023/04/16 04:03:08;;;;;;;15.53;6.83;;;;;;;9.87;70.07;94630.44;5024175;28;20298;-70
2023/04/16 04:05:38;;;;;;;13.83;6.20;;;;;;;10.00;67.90;94627.03;5006401;28;20733;-72
2023/04/16 04:08:04;;;;;;;14.97;6.30;;;;;;;10.04;67.13;94631.66;5008111;28;20279;-72
2023/04/16 04:10:33;;;;;;;13.40;5.87;;;;;;;10.16;65.95;94639.69;4984179;28;20270;-73
2023/04/16 04:12:59;;;;;;;15.23;5.97;;;;;;;10.23;66.27;94632.66;4996230;28;20241;-72
2023/04/16 04:15:24;;;;;;;17.43;6.17;;;;;;;10.14;67.11;94634.69;4992294;28;20280;-71
2023/04/16 04:17:50;;;;;;;12.67;6.07;;;;;;;10.08;67.34;94639.88;4991603;28;20602;-72
2023/04/16 04:20:15;;;;;;;15.07;5.97;;;;;;;10.13;67.05;94645.34;4999718;28;20225;-72
2023/04/16 04:22:41;;;;;;;12.00;5.60;;;;;;;10.07;65.83;94644.31;4997834;28;20244;-71
2023/04/16 04:25:08;;;;;;;14.93;6.10;;;;;;;10.25;66.78;94641.09;5005369;28;20676;-72
2023/04/16 04:27:34;;;;;;;14.73;5.83;;;;;;;10.19;65.97;94649.75;4997435;28;20241;-73
2023/04/16 04:29:59;;;;;;;13.53;6.10;;;;;;;10.12;65.83;94651.59;5001582;28;20756;-71
2023/04/16 04:32:25;;;;;;;13.20;5.70;;;;;;;10.13;66.27;94653.19;5019176;28;20666;-72
2023/04/16 04:34:50;;;;;;;14.23;5.60;;;;;;;10.34;67.08;94649.53;5001789;28;20279;-71
2023/04/16 04:37:16;;;;;;;14.60;5.90;;;;;;;10.44;66.64;94657.75;5022773;28;20214;-72
2023/04/16 04:39:41;;;;;;;14.83;5.90;;;;;;;10.51;66.66;94656.72;4991546;28;20232;-72
2023/04/16 04:42:07;;;;;;;10.60;5.33;;;;;;;10.49;65.08;94660.56;4998163;28;20603;-72
2023/04/16 04:44:32;;;;;;;13.53;5.90;;;;;;;10.48;65.03;94656.34;4997064;28;20233;-72
2023/04/16 04:46:58;;;;;;;13.00;5.70;;;;;;;10.47;65.43;94667.81;5012968;28;20226;-72
2023/04/16 04:49:23;;;;;;;10.53;5.70;;;;;;;10.35;66.87;94662.41;4997519;28;20226;-72
2023/04/16 04:51:49;;;;;;;12.00;5.97;;;;;;;10.41;66.83;94660.78;5003821;28;20828;-72
2023/04/16 04:54:14;;;;;;;11.63;5.40;;;;;;;10.50;65.60;94664.78;5003310;28;20280;-72
2023/04/16 04:56:40;;;;;;;13.00;5.23;;;;;;;10.50;65.34;94672.63;4999423;28;20250;-72
2023/04/16 04:59:05;;;;;;;13.47;5.10;;;;;;;10.54;64.48;94658.94;5009443;28;20233;-72
2023/04/16 05:01:31;;;;;;;12.87;5.20;;;;;;;10.53;64.12;94662.56;5022569;28;20245;-72
2023/04/16 05:03:56;;;;;;;12.20;5.40;;;;;;;10.47;67.22;94670.44;4982910;28;20695;-72
2023/04/16 05:06:22;;;;;;;10.43;4.70;;;;;;;10.46;68.16;94668.84;5013801;28;20252;-71
2023/04/16 05:08:47;;;;;;;14.67;4.73;;;;;;;10.64;66.29;94667.19;5003558;28;20745;-72
2023/04/16 05:11:13;;;;;;;13.37;4.80;;;;;;;10.64;64.61;94661.94;5013555;28;20703;-72
2023/04/16 05:13:38;;;;;;;12.33;4.80;;;;;;;10.72;64.81;94660.91;5002103;28;20629;-72
2023/04/16 05:16:04;;;;;;;12.07;4.80;;;;;;;10.93;65.99;94659.81;5004568;28;20241;-72
2023/04/16 05:18:31;;;;;;;11.07;4.63;;;;;;;10.88;65.56;94657.03;5002152;28;20236;-73
2023/04/16 05:20:56;;;;;;;10.77;5.10;;;;;;;10.84;65.87;94654.81;5022750;28;20261;-72
2023/04/16 05:23:22;;;;;;;11.03;4.90;;;;;;;10.94;64.56;94653.59;4996404;28;20237;-72
2023/04/16 05:25:47;;;;;;;16.10;5.50;;;;;;;10.96;62.52;94660.22;5010833;28;20617;-73
2023/04/16 05:28:13;;;;;;;11.73;4.80;;;;;;;10.90;63.25;94655.00;4988373;28;20632;-73
2023/04/16 05:30:38;;;;;;;13.27;5.47;;;;;;;11.03;63.01;94658.38;5003739;28;20229;-73
2023/04/16 05:33:04;;;;;;;13.00;5.23;;;;;;;11.20;62.49;94654.25;4981524;28;20268;-71
2023/04/16 05:35:30;;;;;;;15.73;5.90;;;;;;;11.23;63.43;94663.50;4986099;28;20650;-72
2023/04/16 05:37:55;;;;;;;15.30;6.00;;;;;;;11.11;63.32;94668.59;5005902;28;20287;-73
2023/04/16 05:40:21;;;;;;;14.83;6.20;;;;;;;11.15;63.34;94667.16;4984953;28;20617;-71
2023/04/16 05:42:46;;;;;;;16.67;6.60;;;;;;;11.13;63.39;94666.56;5017084;28;20238;-72
2023/04/16 05:45:12;;;;;;;15.40;6.53;;;;;;;10.97;62.40;94651.34;5026782;28;20310;-73
2023/04/16 05:47:37;;;;;;;14.17;6.30;;;;;;;10.95;63.91;94657.78;5016926;28;20272;-72
2023/04/16 05:50:03;;;;;;;13.37;6.40;;;;;;;10.99;63.26;94659.78;5017786;28;20230;-72
2023/04/16 05:52:29;;;;;;;16.50;6.17;;;;;;;11.14;63.29;94656.91;5006722;28;20236;-72
2023/04/16 05:54:54;;;;;;;15.63;5.50;;;;;;;11.17;64.14;94656.50;4982536;28;21066;-72
2023/04/16 05:57:20;;;;;;;13.90;5.60;;;;;;;11.20;63.80;94664.72;5008688;28;20234;-72
2023/04/16 05:59:45;;;;;;;13.10;5.53;;;;;;;11.28;63.40;94661.06;5017734;28;20232;-73
2023/04/16 06:02:11;;;;;;;14.23;5.60;;;;;;;11.40;63.28;94667.25;5003465;28;20237;-73
2023/04/16 06:04:36;;;;;;;16.00;6.70;;;;;;;11.43;63.26;94659.78;5013510;28;20230;-73
2023/04/16 06:07:02;;;;;;;16.93;6.80;;;;;;;11.41;63.56;94666.22;5027199;28;20773;-73
2023/04/16 06:09:28;;;;;;;16.50;6.80;;;;;;;11.36;63.18;94666.06;5015284;28;20230;-72
2023/04/16 06:11:54;;;;;;;13.00;6.53;;;;;;;11.51;61.25;94659.50;4988261;28;20236;-72
2023/04/16 06:14:19;;;;;;;15.50;6.83;;;;;;;11.77;61.69;94657.75;5025220;28;20260;-71
2023/04/16 06:16:45;;;;;;;14.57;6.57;;;;;;;11.65;60.87;94665.47;5002668;28;20723;-73
2023/04/16 06:19:11;;;;;;;15.23;6.27;;;;;;;11.87;61.51;94669.38;5007613;28;20233;-73
2023/04/16 06:21:36;;;;;;;16.60;6.57;;;;;;;11.88;60.41;94665.75;4998968;28;20659;-73
2023/04/16 06:24:02;;;;;;;12.97;6.40;;;;;;;12.11;60.38;94655.44;5019433;28;20374;-73
2023/04/16 06:26:27;;;;;;;13.13;5.97;;;;;;;12.12;59.03;94657.06;5007705;28;20234;-73
2023/04/16 06:28:53;;;;;;;13.60;5.67;;;;;;;12.06;60.07;94655.28;5000519;28;20241;-73
2023/04/16 06:31:18;;;;;;;12.47;5.47;;;;;;;12.04;59.40;94653.91;4981841;28;20240;-72
2023/04/16 06:33:44;;;;;;;11.43;5.60;;;;;;;12.31;59.38;94657.91;4998732;28;20238;-73
2023/04/16 06:36:10;;;;;;;13.73;5.70;;;;;;;12.18;59.57;94657.22;5003432;28;20229;-73
2023/04/16 06:38:36;;;;;;;13.40;5.97;;;;;;;12.23;60.49;94655.53;5000685;28;20299;-73
2023/04/16 06:41:01;;;;;;;11.30;5.50;;;;;;;12.40;60.10;94659.22;5034322;28;20249;-73
2023/04/16 06:43:27;;;;;;;10.33;4.70;;;;;;;12.31;60.41;94650.03;4997041;28;20225;-72
2023/04/16 06:45:52;;;;;;;12.77;5.83;;;;;;;12.28;61.11;94660.16;4990212;28;20238;-73
2023/04/16 06:48:18;;;;;;;13.40;5.80;;;;;;;12.62;60.40;94657.78;5000944;28;20225;-72
2023/04/16 06:50:44;;;;;;;15.27;6.27;;;;;;;12.68;60.70;94649.03;5007233;28;20225;-72
2023/04/16 06:53:09;;;;;;;10.57;4.57;;;;;;;12.55;61.45;94656.25;5002258;28;20621;-73
2023/04/16 06:55:35;;;;;;;10.33;4.40;;;;;;;12.85;59.98;94654.50;4998183;28;20229;-74
2023/04/16 06:58:01;;;;;;;10.03;4.40;;;;;;;12.72;61.38;94657.28;5013532;28;20357;-73
2023/04/16 07:00:27;;;;;;;7.93;4.17;;;;;;;13.11;60.73;94659.47;5000688;28;20237;-73
2023/04/16 07:02:53;;;;;;;9.30;3.80;;;;;;;12.90;60.85;94659.13;5000973;28;20237;-73
2023/04/16 07:05:18;;;;;;;11.57;3.80;;;;;;;12.98;61.09;94648.28;4987625;28;20781;-73
2023/04/16 07:07:44;;;;;;;9.23;4.00;;;;;;;13.39;61.09;94643.97;5009790;28;20230;-73
2023/04/16 07:10:10;;;;;;;11.43;4.37;;;;;;;13.30;61.10;94644.50;4984129;28;20229;-73
2023/04/16 07:12:35;;;;;;;9.23;4.07;;;;;;;13.32;61.62;94651.13;5021172;28;20250;-73
2023/04/16 07:15:01;;;;;;;9.80;3.80;;;;;;;13.60;60.93;94657.63;5001228;28;20859;-74
2023/04/16 07:17:26;;;;;;;11.43;4.30;;;;;;;13.50;60.89;94651.06;5023102;28;20261;-72
2023/04/16 07:19:52;;;;;;;9.50;3.80;;;;;;;13.83;60.70;94660.28;5005643;28;20237;-73
2023/04/16 07:22:18;;;;;;;7.00;3.70;;;;;;;13.99;59.58;94651.78;4999693;28;20827;-73
2023/04/16 07:24:44;;;;;;;9.97;4.07;;;;;;;13.76;59.13;94660.41;5022554;28;20347;-73
2023/04/16 07:27:10;;;;;;;8.70;3.80;;;;;;;13.97;60.40;94651.19;5009910;28;20743;-73
2023/04/16 07:29:36;;;;;;;10.20;3.80;;;;;;;14.17;59.13;94652.47;4988096;28;20594;-73
2023/04/16 07:32:01;;;;;;;10.20;4.40;;;;;;;14.07;58.59;94651.41;4988431;28;20292;-73
2023/04/16 07:34:27;;;;;;;12.67;4.43;;;;;;;14.07;58.00;94646.97;5023329;28;20249;-74
2023/04/16 07:36:52;;;;;;;10.63;4.30;;;;;;;14.05;58.37;94650.84;4995511;28;20233;-72
2023/04/16 07:39:18;;;;;;;9.30;4.03;;;;;;;14.10;58.24;94646.53;5003555;28;20246;-72
2023/04/16 07:41:43;;;;;;;10.87;4.30;;;;;;;14.12;57.74;94648.91;4981602;28;20321;-73
2023/04/16 07:44:09;;;;;;;10.27;4.40;;;;;;;14.16;57.40;94645.59;4981340;28;20229;-73
2023/04/16 07:46:34;;;;;;;10.63;4.20;;;;;;;14.67;57.61;94649.41;5028492;28;20234;-72
2023/04/16 07:49:00;;;;;;;12.87;3.63;;;;;;;14.88;56.51;94650.66;4991216;28;20234;-72
2023/04/16 07:51:26;;;;;;;8.53;3.70;;;;;;;14.61;55.99;94651.13;4980902;28;20221;-73
2023/04/16 07:53:51;;;;;;;11.10;3.53;;;;;;;15.12;55.36;94647.69;4982409;28;20226;-73
2023/04/16 07:56:17;;;;;;;7.27;3.40;;;;;;;15.09;53.93;94648.19;5012596;28;20249;-73
2023/04/16 07:58:43;;;;;;;10.10;3.63;;;;;;;14.98;54.79;94649.00;4976664;28;20233;-74
2023/04/16 08:01:08;;;;;;;6.57;3.13;;;;;;;15.08;55.23;94643.94;4996437;28;20230;-76
2023/04/16 08:03:34;;;;;;;7.27;3.50;;;;;;;15.16;54.94;94642.78;5008999;28;20312;-77
2023/04/16 08:05:59;;;;;;;9.17;3.60;;;;;;;15.20;55.31;94649.16;5021374;28;20238;-76
2023/04/16 08:08:25;;;;;;;11.60;3.73;;;;;;;15.39;55.45;94651.41;5030199;28;20246;-78
2023/04/16 08:10:54;;;;;;;10.57;3.60;;;;;;;15.33;55.71;94646.28;5029963;28;20229;-78
2023/04/16 08:13:22;;;;;;;6.90;3.53;;;;;;;15.26;55.67;94650.88;5023337;28;20249;-76
2023/04/16 08:15:48;;;;;;;11.07;3.87;;;;;;;15.71;53.80;94637.75;5005786;28;20249;-77
2023/04/16 08:18:14;;;;;;;6.70;3.40;;;;;;;15.96;53.08;94644.25;4998919;28;20234;-76
2023/04/16 08:20:40;;;;;;;10.23;3.47;;;;;;;16.24;52.50;94643.38;5011005;28;20221;-76
2023/04/16 08:23:06;;;;;;;11.10;3.50;;;;;;;16.16;52.48;94641.94;5006175;28;20951;-77
2023/04/16 08:25:31;;;;;;;7.60;3.30;;;;;;;16.48;51.94;94636.09;4999064;28;20236;-78
2023/04/16 08:27:57;;;;;;;9.70;3.30;;;;;;;16.76;51.19;94633.34;5024483;28;20363;-77
2023/04/16 08:30:22;;;;;;;7.97;2.70;;;;;;;16.31;50.19;94637.94;4999677;28;20236;-78
2023/04/16 08:32:48;;;;;;;8.17;3.30;;;;;;;16.10;50.10;94632.34;5005513;28;20241;-78
2023/04/16 08:35:13;;;;;;;6.57;2.93;;;;;;;16.32;51.48;94626.31;4996124;28;20244;-77
2023/04/16 08:37:39;;;;;;;5.90;3.10;;;;;;;16.45;50.17;94628.63;4984691;28;20745;-76
2023/04/16 08:40:05;;;;;;;6.20;3.00;;;;;;;16.22;51.42;94623.53;5023446;28;20712;-77
2023/04/16 08:42:39;;;;;;;7.00;3.20;;;;;;;16.64;51.48;94627.34;4994850;28;20702;-77
2023/04/16 08:45:16;;;;;;;6.83;3.50;;;;;;;16.80;49.74;94616.75;5013749;28;20226;-77
2023/04/16 08:47:51;;;;;;;8.13;3.60;;;;;;;16.45;50.66;94623.34;4999712;28;20248;-77
2023/04/16 08:50:24;;;;;;;6.63;3.60;;;;;;;16.66;50.49;94612.06;5025424;28;20218;-78
2023/04/16 08:52:55;;;;;;;9.10;3.70;;;;;;;17.30;50.34;94618.38;5031006;28;20245;-77
2023/04/16 08:55:24;;;;;;;7.57;3.60;;;;;;;17.75;48.51;94610.13;4982383;28;20287;-76
2023/04/16 08:57:53;;;;;;;10.17;3.63;;;;;;;17.77;48.86;94614.13;5002556;28;20315;-76
2023/04/16 09:00:18;;;;;;;6.80;3.43;;;;;;;17.78;48.64;94609.63;5005494;28;20240;-78
2023/04/16 09:02:44;;;;;;;10.13;3.50;;;;;;;17.14;48.40;94613.97;5005097;28;20238;-76
2023/04/16 09:05:11;;;;;;;9.67;3.30;;;;;;;17.40;48.11;94608.72;4983995;28;20317;-76
2023/04/16 09:07:36;;;;;;;8.63;3.50;;;;;;;17.14;47.42;94606.84;4998508;28;20233;-77
2023/04/16 09:10:02;;;;;;;6.93;3.13;;;;;;;16.83;50.01;94605.69;4988403;28;20242;-75
2023/04/16 09:12:29;;;;;;;8.03;2.87;;;;;;;16.99;49.28;94609.31;4996269;28;20846;-76
2023/04/16 09:14:55;;;;;;;9.80;3.10;;;;;;;16.83;48.11;94599.59;5023807;28;20263;-76
2023/04/16 09:17:21;;;;;;;8.20;2.80;;;;;;;17.09;47.73;94604.13;5004846;28;20252;-76
2023/04/16 09:19:46;;;;;;;7.47;3.10;;;;;;;16.76;48.80;94598.97;5007086;28;20233;-77
2023/04/16 09:22:12;;;;;;;10.40;3.10;;;;;;;16.83;48.39;94604.88;5001408;28;20237;-76
2023/04/16 09:24:37;;;;;;;6.77;2.90;;;;;;;16.83;49.35;94599.59;5006592;28;20295;-76
2023/04/16 09:27:03;;;;;;;5.77;2.80;;;;;;;16.96;48.49;94596.56;4997393;28;20292;-76
2023/04/16 09:29:33;;;;;;;8.30;2.90;;;;;;;17.03;48.89;94601.69;5021890;28;20946;-77
2023/04/16 09:32:06;;;;;;;7.37;3.00;;;;;;;17.37;49.10;94601.25;5011911;28;20245;-78
2023/04/16 09:34:32;;;;;;;9.93;2.83;;;;;;;17.18;47.49;94607.94;5005771;28;20248;-78
2023/04/16 09:37:14;;;;;;;7.40;2.80;;;;;;;17.55;46.84;94609.94;4996403;28;20234;-77
2023/04/16 09:39:41;;;;;;;22.47;14.10;;;;;;;17.76;46.45;94604.59;4995435;28;20778;-77
2023/04/16 09:42:06;;;;;;;15.67;8.67;;;;;;;17.47;46.73;94601.38;4996435;28;20225;-77
2023/04/16 09:44:38;;;;;;;8.07;2.90;;;;;;;17.42;46.41;94593.38;4998373;28;20624;-76
2023/04/16 09:47:07;;;;;;;11.47;5.63;;;;;;;17.97;45.65;94594.97;4987665;28;20709;-77
2023/04/16 09:49:34;;;;;;;7.50;3.30;;;;;;;18.09;45.38;94592.94;5006125;28;20616;-77
2023/04/16 09:52:01;;;;;;;7.13;2.80;;;;;;;17.51;45.17;94591.06;5021571;28;20229;-77
2023/04/16 09:54:26;;;;;;;8.03;3.00;;;;;;;17.03;46.65;94594.53;4983447;28;20226;-77
2023/04/16 09:56:55;;;;;;;9.77;2.93;;;;;;;17.03;45.72;94581.31;4991350;28;20234;-78
2023/04/16 09:59:21;;;;;;;7.63;2.50;;;;;;;16.67;46.48;94585.38;4986161;28;20256;-77
2023/04/16 10:01:48;;;;;;;6.20;3.63;;;;;;;17.18;46.98;94578.03;5008511;28;20309;-76
2023/04/16 10:04:14;;;;;;;16.30;3.80;;;;;;;17.42;46.50;94577.50;5009142;28;20791;-77
2023/04/16 10:06:40;;;;;;;6.63;2.90;;;;;;;17.09;46.94;94575.03;5006969;28;20245;-77
2023/04/16 10:09:09;;;;;;;5.07;2.60;;;;;;;17.16;46.96;94573.00;5009932;28;20227;-77
2023/04/16 10:11:35;;;;;;;4.93;2.70;;;;;;;17.35;46.91;94566.34;5008845;28;20264;-76
2023/04/16 10:14:00;;;;;;;9.10;2.90;;;;;;;17.58;46.15;94567.09;4997140;28;20262;-77
2023/04/16 10:16:26;;;;;;;8.10;2.53;;;;;;;17.37;46.80;94566.88;4995032;28;20245;-78
2023/04/16 10:18:52;;;;;;;8.10;3.03;;;;;;;17.47;46.85;94563.53;4993612;28;20222;-77
2023/04/16 10:21:17;;;;;;;8.27;3.00;;;;;;;17.21;47.03;94565.13;5001346;28;20958;-77
2023/04/16 10:23:43;;;;;;;6.77;2.73;;;;;;;17.62;45.93;94552.31;4988036;28;20237;-76
2023/04/16 10:26:08;;;;;;;10.23;4.30;;;;;;;18.03;45.53;94548.94;4998917;28;20234;-76
2023/04/16 10:28:35;;;;;;;5.03;2.73;;;;;;;18.26;44.31;94555.69;5013853;28;20283;-76
2023/04/16 10:31:01;;;;;;;7.07;3.00;;;;;;;18.23;44.13;94551.72;4996502;28;20325;-76
2023/04/16 10:33:28;;;;;;;7.43;2.63;;;;;;;18.18;44.79;94551.69;5012707;28;20247;-77
2023/04/16 10:36:14;;;;;;;10.30;4.27;;;;;;;18.40;46.22;94549.69;5004201;28;20230;-76
2023/04/16 10:38:49;;;;;;;8.87;4.77;;;;;;;18.50;43.93;94549.00;4994476;28;20230;-77
2023/04/16 10:41:15;;;;;;;9.23;2.90;;;;;;;18.47;43.40;94537.03;5007254;28;20246;-76
2023/04/16 10:43:45;;;;;;;8.30;2.90;;;;;;;18.83;44.39;94545.97;4997409;28;20231;-75
2023/04/16 10:46:22;;;;;;;88.07;49.27;;;;;;;19.26;42.96;94550.88;4996721;28;20238;-76
2023/04/16 10:48:49;;;;;;;5.70;2.80;;;;;;;19.14;41.87;94546.84;5012906;28;20794;-76
2023/04/16 10:51:25;;;;;;;7.30;2.70;;;;;;;19.06;41.75;94540.19;5002940;28;20263;-75
2023/04/16 10:53:50;;;;;;;6.10;2.80;;;;;;;19.25;41.12;94543.97;5015040;28;20234;-75
2023/04/16 10:56:22;;;;;;;6.80;2.70;;;;;;;19.41;41.14;94542.19;5019099;28;20234;-75
2023/04/16 10:58:48;;;;;;;5.97;2.70;;;;;;;19.37;40.41;94533.94;4996214;28;20237;-75
2023/04/16 11:01:13;;;;;;;6.63;2.60;;;;;;;19.01;39.69;94526.91;5001824;28;20239;-75
2023/04/16 11:03:47;;;;;;;5.60;2.40;;;;;;;19.96;40.74;94528.94;5011436;28;20226;-74
2023/04/16 11:06:16;;;;;;;7.67;2.97;;;;;;;20.10;38.66;94526.53;4993802;28;20234;-75
2023/04/16 11:08:42;;;;;;;6.80;2.50;;;;;;;19.37;38.93;94525.97;5001107;28;20242;-75
2023/04/16 11:11:08;;;;;;;6.53;2.50;;;;;;;19.01;40.71;94520.84;5000221;28;20727;-75
2023/04/16 11:13:35;;;;;;;5.60;2.30;;;;;;;19.50;41.26;94529.97;5022746;28;20317;-75
2023/04/16 11:16:01;;;;;;;9.20;2.77;;;;;;;18.74;41.41;94518.34;4982534;28;20253;-76
2023/04/16 11:18:26;;;;;;;7.90;2.77;;;;;;;18.61;41.29;94505.56;5012524;28;20701;-74
2023/04/16 11:20:52;;;;;;;6.43;2.50;;;;;;;18.88;42.59;94513.34;4999643;28;20806;-76
2023/04/16 11:23:17;;;;;;;6.07;2.67;;;;;;;19.02;42.65;94504.66;5020740;28;20234;-74